Time;durP1;ratioP1;P1;durP2;ratioP2;P2;SDS_P1;SDS_P2;PMS_P1;PMS_P2;Temp;Humidity;BMP_temperature;BMP_pressure;BME280_temperature;BME280_humidity;BME280_pressure;Samples;Min_cycle;Max_cycle;Signal;HPM_P1;HPM_P2
2023/01/19 00:01:11;;;;;;;;;11.25;8.75;;;;;5.76;61.98;100252.19;5055254;28;46234;-74
2023/01/19 00:03:37;;;;;;;;;9.00;8.00;;;;;5.71;61.82;100248.66;5072730;27;45749;-73
2023/01/19 00:06:06;;;;;;;;;8.00;8.00;;;;;5.73;62.13;100257.34;5055638;28;45682;-74
2023/01/19 00:08:33;;;;;;;;;9.00;8.50;;;;;5.80;61.65;100269.59;5074381;28;45391;-71
2023/01/19 00:10:58;;;;;;;;;9.50;9.50;;;;;5.68;61.48;100251.22;5090754;27;46783;-72
2023/01/19 00:13:24;;;;;;;;;9.50;8.25;;;;;5.59;62.27;100235.50;5071238;27;45415;-70
2023/01/19 00:15:49;;;;;;;;;10.00;9.25;;;;;5.76;61.94;100265.19;5072911;28;45401;-73
2023/01/19 00:18:15;;;;;;;;;8.50;8.50;;;;;5.76;62.17;100265.19;5071575;28;45346;-71
2023/01/19 00:20:43;;;;;;;;;10.00;7.25;;;;;5.72;61.45;100260.81;5073758;28;45869;-72
2023/01/19 00:23:09;;;;;;;;;12.25;9.50;;;;;5.77;62.36;100279.06;5068031;27;45376;-71
2023/01/19 00:25:41;;;;;;;;;8.50;7.00;;;;;5.65;61.60;100256.38;5075359;28;45716;-71
2023/01/19 00:28:07;;;;;;;;;11.25;11.25;;;;;5.77;61.86;100279.06;5093641;27;45442;-70
2023/01/19 00:30:33;;;;;;;;;12.25;10.25;;;;;5.72;62.83;100277.28;5075156;28;47700;-71
2023/01/19 00:32:58;;;;;;;;;11.50;10.75;;;;;5.74;61.98;100279.88;5050040;27;45495;-71
2023/01/19 00:35:24;;;;;;;;;12.75;9.50;;;;;5.69;62.07;100264.22;5042429;28;45571;-72
2023/01/19 00:37:50;;;;;;;;;11.25;9.00;;;;;5.78;62.23;100283.41;5055701;28;45524;-70
2023/01/19 00:40:16;;;;;;;;;9.00;9.00;;;;;5.74;62.61;100277.28;5090300;27;45746;-77
2023/01/19 00:42:47;;;;;;;;;10.50;8.75;;;;;5.76;61.75;100274.72;5073999;27;45384;-73
2023/01/19 00:45:20;;;;;;;;;10.25;9.00;;;;;5.77;61.77;100273.88;5052379;28;45429;-74
2023/01/19 00:47:47;;;;;;;;;14.50;12.50;;;;;5.70;62.29;100275.50;5063975;27;45498;-71
2023/01/19 00:50:15;;;;;;;;;13.75;11.50;;;;;5.47;62.55;100262.19;5074533;28;46576;-73
2023/01/19 00:52:42;;;;;;;;;10.00;8.75;;;;;5.56;63.06;100283.09;5068044;28;45396;-74
2023/01/19 00:55:10;;;;;;;;;12.00;9.00;;;;;5.56;62.89;100277.03;5071918;28;45422;-75
2023/01/19 00:57:37;;;;;;;;;10.75;9.25;;;;;5.60;62.76;100284.00;5077141;28;45374;-74
2023/01/19 01:00:11;;;;;;;;;14.25;10.50;;;;;5.49;62.49;100271.72;5073257;28;45647;-73
2023/01/19 01:02:38;;;;;;;;;14.00;13.00;;;;;5.54;62.64;100287.38;5073470;28;45928;-73
2023/01/19 01:05:05;;;;;;;;;14.75;11.00;;;;;5.53;63.17;100283.06;5068256;28;45559;-74
2023/01/19 01:07:33;;;;;;;;;11.75;11.00;;;;;5.63;62.49;100297.06;5043035;28;45542;-73
2023/01/19 01:10:00;;;;;;;;;11.75;11.50;;;;;5.62;62.55;100297.88;5063383;28;45594;-72
2023/01/19 01:12:25;;;;;;;;;12.50;11.00;;;;;5.56;62.64;100292.63;5075700;28;45605;-72
2023/01/19 01:14:51;;;;;;;;;14.75;11.50;;;;;5.61;62.76;100307.41;5088817;27;45409;-72
2023/01/19 01:17:23;;;;;;;;;17.25;12.75;;;;;5.59;62.75;100316.03;5073445;27;45534;-71
2023/01/19 01:19:50;;;;;;;;;15.75;13.25;;;;;5.45;62.66;100303.69;5072353;27;46859;-71
2023/01/19 01:22:16;;;;;;;;;18.00;15.00;;;;;5.50;62.91;100312.47;5064215;27;45500;-70
2023/01/19 01:24:41;;;;;;;;;13.75;11.50;;;;;5.46;62.71;100305.47;5076238;28;45504;-72
2023/01/19 01:27:07;;;;;;;;;13.50;13.50;;;;;5.46;63.22;100320.19;5064609;28;46130;-73
2023/01/19 01:29:34;;;;;;;;;18.25;12.25;;;;;5.51;62.35;100332.38;5032674;28;46199;-72
2023/01/19 01:32:00;;;;;;;;;13.50;11.25;;;;;5.34;62.16;100296.59;5054026;28;45899;-70
2023/01/19 01:34:26;;;;;;;;;16.25;11.75;;;;;5.53;62.96;100338.47;5049994;28;45699;-73
2023/01/19 01:36:53;;;;;;;;;15.00;11.50;;;;;5.47;62.54;100330.56;5091703;27;45499;-73
2023/01/19 01:39:20;;;;;;;;;10.75;10.25;;;;;5.47;62.58;100330.56;5071354;28;46701;-73
2023/01/19 01:41:46;;;;;;;;;15.00;13.75;;;;;5.56;62.96;100347.19;5074317;28;45519;-73
2023/01/19 01:44:49;;;;;;;;;11.50;10.75;;;;;5.53;62.91;100354.06;5077763;28;45492;-70
2023/01/19 01:47:31;;;;;;;;;14.00;12.25;;;;;5.52;62.58;100356.63;5076584;28;45318;-73
2023/01/19 01:50:08;;;;;;;;;16.50;14.00;;;;;5.38;62.25;100332.16;5072325;28;45539;-72
2023/01/19 01:52:40;;;;;;;;;15.00;12.50;;;;;5.45;62.64;100360.84;5074390;28;45467;-74
2023/01/19 01:55:09;;;;;;;;;17.75;13.00;;;;;5.39;62.66;100341.72;5071965;27;45440;-74
2023/01/19 01:57:40;;;;;;;;;12.00;12.00;;;;;5.47;62.52;100364.34;5074909;28;45521;-76
2023/01/19 02:00:07;;;;;;;;;15.75;13.75;;;;;5.44;62.46;100364.31;5076121;28;46591;-76
2023/01/19 02:02:50;;;;;;;;;17.00;14.25;;;;;5.37;62.34;100367.66;5078007;28;45574;-76
2023/01/19 02:05:25;;;;;;;;;15.50;15.50;;;;;5.40;62.06;100366.81;5054491;27;46003;-73
2023/01/19 02:13:43;;;;;;;;;14.75;12.00;;;;;5.27;62.46;100368.34;5055091;28;45552;-72
2023/01/19 02:16:13;;;;;;;;;15.00;14.50;;;;;5.26;62.54;100374.38;5055700;28;45259;-74
2023/01/19 02:18:39;;;;;;;;;18.00;15.00;;;;;5.19;62.80;100370.78;5059970;28;45522;-71
2023/01/19 02:21:11;;;;;;;;;17.00;14.50;;;;;5.15;62.45;100371.59;5050308;28;46411;-74
2023/01/19 02:23:44;;;;;;;;;18.25;17.50;;;;;5.15;63.46;100374.19;5050170;28;45424;-73
2023/01/19 02:26:17;;;;;;;;;14.75;13.25;;;;;5.13;62.68;100381.06;5056812;28;45390;-76
2023/01/19 02:29:07;;;;;;;;;18.75;15.75;;;;;5.15;62.90;100381.06;5058590;28;45510;-74
2023/01/19 02:31:36;;;;;;;;;18.25;14.75;;;;;5.08;62.84;100374.94;5052519;27;45460;-73
2023/01/19 02:34:03;;;;;;;;;20.75;18.25;;;;;5.12;63.37;100383.63;5065201;28;45467;-76
2023/01/19 02:36:49;;;;;;;;;26.00;17.75;;;;;4.80;64.08;100355.34;5076027;28;45616;-70
2023/01/19 02:39:18;;;;;;;;;18.25;16.75;;;;;4.91;63.96;100374.56;5071986;28;45434;-72
2023/01/19 02:41:53;;;;;;;;;18.25;14.25;;;;;4.99;64.15;100385.13;5086201;27;45471;-70
2023/01/19 02:44:20;;;;;;;;;20.75;16.00;;;;;5.01;63.50;100379.13;5055783;28;45504;-71
2023/01/19 02:46:46;;;;;;;;;19.50;16.50;;;;;4.93;64.37;100375.47;5063417;28;45532;-73
2023/01/19 02:49:12;;;;;;;;;21.50;19.75;;;;;4.89;64.67;100371.97;5065346;28;45519;-73
2023/01/19 02:51:38;;;;;;;;;21.25;18.50;;;;;4.88;64.58;100366.75;5075641;27;46533;-74
2023/01/19 02:54:03;;;;;;;;;20.00;17.00;;;;;4.96;64.13;100375.56;5106834;27;45860;-73
2023/01/19 02:56:29;;;;;;;;;22.75;18.50;;;;;4.87;64.01;100370.19;5073709;28;45357;-75
2023/01/19 02:59:12;;;;;;;;;18.50;16.25;;;;;4.75;64.12;100378.63;5087144;27;45784;-71
2023/01/19 03:01:50;;;;;;;;;20.00;14.00;;;;;4.73;64.21;100382.03;5068813;28;46674;-71
2023/01/19 03:04:34;;;;;;;;;19.25;16.50;;;;;4.70;64.32;100385.44;5070889;28;45879;-71
2023/01/19 03:07:29;;;;;;;;;17.75;13.50;;;;;4.66;64.59;100371.50;5090007;27;45614;-73
2023/01/19 03:10:26;;;;;;;;;19.75;17.00;;;;;4.62;64.21;100369.69;5035416;28;45386;-71
2023/01/19 03:13:09;;;;;;;;;20.00;16.00;;;;;4.71;64.70;100373.34;5066608;28;45773;-72
2023/01/19 03:15:48;;;;;;;;;21.50;15.75;;;;;4.80;64.86;100376.13;5087388;27;45625;-72
2023/01/19 03:18:20;;;;;;;;;23.25;18.00;;;;;4.80;64.64;100361.41;5066877;28;45545;-72
2023/01/19 03:20:49;;;;;;;;;22.25;20.75;;;;;4.76;64.44;100369.09;5076156;28;45725;-72
2023/01/19 03:23:16;;;;;;;;;22.50;17.25;;;;;4.60;65.45;100375.69;5070115;28;45543;-71
2023/01/19 03:25:47;;;;;;;;;22.50;16.25;;;;;4.57;65.66;100380.84;5057248;28;45897;-70
2023/01/19 03:28:17;;;;;;;;;21.00;16.00;;;;;4.51;65.25;100358.25;5080382;27;45387;-73
2023/01/19 03:30:46;;;;;;;;;20.25;18.00;;;;;4.68;64.69;100375.03;5075054;28;45579;-74
2023/01/19 03:33:19;;;;;;;;;19.25;17.50;;;;;4.63;64.86;100375.78;5086278;27;47692;-71
2023/01/19 03:35:50;;;;;;;;;19.50;17.25;;;;;4.55;64.89;100367.81;5072657;28;45480;-75
2023/01/19 03:38:23;;;;;;;;;17.50;15.75;;;;;4.47;64.61;100364.22;5074355;28;45397;-74
2023/01/19 03:40:54;;;;;;;;;21.00;19.75;;;;;4.36;65.60;100360.50;5067930;28;45575;-74
2023/01/19 03:43:22;;;;;;;;;20.75;16.75;;;;;4.37;65.62;100357.97;5054604;28;45708;-74
2023/01/19 03:45:49;;;;;;;;;24.00;17.75;;;;;4.42;65.02;100369.28;5055066;28;45593;-74
2023/01/19 03:48:16;;;;;;;;;20.50;17.50;;;;;4.57;65.21;100389.47;5044917;28;45484;-75
2023/01/19 03:50:41;;;;;;;;;22.25;17.00;;;;;4.39;65.50;100376.13;5053741;28;45508;-75
2023/01/19 03:53:14;;;;;;;;;22.00;17.75;;;;;4.49;65.39;100377.22;5067579;28;46851;-75
2023/01/19 03:55:43;;;;;;;;;16.00;14.25;;;;;4.58;64.80;100388.66;5051372;28;45471;-75
2023/01/19 03:58:09;;;;;;;;;17.75;16.50;;;;;4.52;64.72;100372.94;5092371;27;45408;-75
2023/01/19 04:00:35;;;;;;;;;16.75;15.75;;;;;4.49;64.77;100378.09;5064283;28;45441;-76
2023/01/19 04:03:02;;;;;;;;;22.50;19.75;;;;;4.57;64.94;100384.28;5070906;27;47820;-74
2023/01/19 04:05:28;;;;;;;;;24.25;21.00;;;;;4.55;65.01;100391.16;5058828;28;45362;-74
2023/01/19 04:07:54;;;;;;;;;26.25;19.50;;;;;4.46;65.17;100389.28;5074041;27;45471;-74
2023/01/19 04:10:22;;;;;;;;;19.50;15.75;;;;;4.51;65.27;100386.78;5059137;28;45434;-74
2023/01/19 04:12:48;;;;;;;;;20.50;16.50;;;;;4.46;65.33;100390.97;5058740;28;46357;-75
2023/01/19 04:15:14;;;;;;;;;18.50;17.00;;;;;4.37;65.39;100373.53;5091388;27;45385;-74
2023/01/19 04:17:40;;;;;;;;;24.00;18.50;;;;;4.42;64.55;100377.06;5059361;28;45434;-74
2023/01/19 04:20:07;;;;;;;;;23.25;18.50;;;;;4.57;65.49;100386.88;5055903;28;45428;-76
2023/01/19 04:22:33;;;;;;;;;20.00;18.25;;;;;4.55;64.85;100379.91;5045419;28;47787;-75
2023/01/19 04:24:58;;;;;;;;;21.50;21.50;;;;;4.64;64.83;100393.09;5070454;28;45455;-74
2023/01/19 04:27:24;;;;;;;;;21.50;17.75;;;;;4.47;65.06;100382.38;5070393;28;45533;-74
2023/01/19 04:29:51;;;;;;;;;28.00;18.50;;;;;4.36;65.35;100387.31;5054865;28;45850;-74
2023/01/19 04:32:17;;;;;;;;;30.00;21.00;;;;;4.31;65.36;100386.34;5070116;27;46425;-75
2023/01/19 04:34:43;;;;;;;;;20.25;14.75;;;;;4.31;66.11;100386.34;5054892;28;45295;-75
2023/01/19 04:37:08;;;;;;;;;23.25;20.50;;;;;4.20;66.54;100385.22;5052902;28;45801;-76
2023/01/19 04:39:34;;;;;;;;;22.00;19.00;;;;;4.15;66.30;100368.69;5057308;28;45433;-75
2023/01/19 04:42:00;;;;;;;;;22.25;17.75;;;;;4.23;66.03;100390.50;5054947;28;45426;-74
2023/01/19 04:44:26;;;;;;;;;28.00;21.75;;;;;4.17;66.50;100379.97;5052868;28;45960;-75
2023/01/19 04:46:53;;;;;;;;;18.50;16.50;;;;;4.20;65.81;100375.75;5058185;28;45534;-77
2023/01/19 04:49:19;;;;;;;;;21.25;15.25;;;;;4.17;65.99;100375.66;5057154;28;45481;-75
2023/01/19 04:51:46;;;;;;;;;18.25;16.50;;;;;4.15;66.39;100373.88;5057976;28;45600;-73
2023/01/19 04:54:11;;;;;;;;;22.75;19.25;;;;;4.06;66.02;100373.66;5055338;28;45494;-74
2023/01/19 04:56:37;;;;;;;;;21.00;19.50;;;;;4.06;67.14;100390.13;5054455;28;45464;-76
2023/01/19 04:59:02;;;;;;;;;26.50;20.50;;;;;3.86;67.05;100349.91;5054561;28;45776;-77
2023/01/19 05:01:29;;;;;;;;;27.25;18.75;;;;;4.06;66.30;100371.06;5070020;28;46123;-74
2023/01/19 05:03:58;;;;;;;;;32.25;18.50;;;;;4.23;66.60;100400.84;5069741;27;45480;-72
2023/01/19 05:06:23;;;;;;;;;16.25;14.50;;;;;4.20;66.67;100386.13;5086847;27;45680;-73
2023/01/19 05:08:49;;;;;;;;;22.25;20.25;;;;;4.26;66.48;100395.72;5053032;28;45694;-74
2023/01/19 05:11:15;;;;;;;;;22.00;19.00;;;;;4.21;66.28;100400.81;5055517;28;47687;-73
2023/01/19 05:13:40;;;;;;;;;21.00;18.00;;;;;4.19;66.28;100388.66;5058144;28;45479;-73
2023/01/19 05:16:07;;;;;;;;;19.00;17.75;;;;;4.21;66.35;100389.56;5058084;28;45532;-74
2023/01/19 05:18:35;;;;;;;;;26.00;20.50;;;;;4.14;66.23;100390.28;5055380;28;45468;-74
2023/01/19 05:21:04;;;;;;;;;15.75;15.75;;;;;4.01;66.83;100378.75;5051312;28;47914;-74
2023/01/19 05:23:31;;;;;;;;;17.00;14.25;;;;;4.03;66.81;100390.03;5053421;28;45429;-74
2023/01/19 05:26:00;;;;;;;;;21.75;16.25;;;;;4.14;66.48;100398.94;5053671;28;45553;-73
2023/01/19 05:28:31;;;;;;;;;21.00;14.25;;;;;4.04;66.06;100386.63;5056062;28;45406;-74
2023/01/19 05:30:57;;;;;;;;;21.00;14.00;;;;;4.06;66.49;100394.41;5052151;28;45866;-74
2023/01/19 05:33:22;;;;;;;;;20.25;17.00;;;;;3.76;66.09;100344.50;5055983;28;45625;-74
2023/01/19 05:35:52;;;;;;;;;21.25;15.25;;;;;4.10;66.52;100396.22;5057900;27;45397;-75
2023/01/19 05:38:18;;;;;;;;;22.00;17.25;;;;;3.90;67.14;100385.41;5053584;28;45505;-75
2023/01/19 05:40:44;;;;;;;;;17.25;12.25;;;;;3.97;66.53;100401.13;5048168;28;46815;-75
2023/01/19 05:43:15;;;;;;;;;17.25;14.75;;;;;3.94;67.29;100398.47;5048031;28;45688;-76
2023/01/19 05:45:40;;;;;;;;;18.50;14.50;;;;;4.00;66.88;100400.31;5065329;28;45386;-75
2023/01/19 05:48:07;;;;;;;;;15.25;12.00;;;;;3.96;66.41;100391.63;5055646;28;45345;-74
2023/01/19 05:50:34;;;;;;;;;14.75;12.25;;;;;4.07;66.57;100402.22;5056928;28;45423;-73
2023/01/19 05:53:00;;;;;;;;;16.25;11.50;;;;;4.02;66.47;100403.84;5056635;28;45434;-73
2023/01/19 05:55:27;;;;;;;;;14.00;13.25;;;;;3.86;66.86;100375.81;5048270;28;45406;-74
2023/01/19 05:57:53;;;;;;;;;17.50;13.25;;;;;4.01;66.79;100402.06;5045770;28;45391;-74
2023/01/19 06:00:19;;;;;;;;;18.50;16.50;;;;;3.91;66.45;100379.38;5052741;28;45489;-75
2023/01/19 06:02:46;;;;;;;;;18.50;15.00;;;;;4.05;66.85;100419.44;5053276;28;45618;-76
2023/01/19 06:05:12;;;;;;;;;16.00;14.00;;;;;4.01;66.49;100394.28;5052994;28;45522;-75
2023/01/19 06:07:38;;;;;;;;;16.25;13.00;;;;;4.10;66.84;100414.38;5085315;27;45754;-74
2023/01/19 06:10:04;;;;;;;;;17.00;11.75;;;;;4.08;67.67;100416.94;5051823;28;47783;-73
2023/01/19 06:12:31;;;;;;;;;14.50;11.00;;;;;4.10;66.12;100410.06;5062664;28;45429;-76
2023/01/19 06:14:57;;;;;;;;;15.25;13.25;;;;;4.10;66.65;100412.66;5044971;28;45453;-76
2023/01/19 06:17:23;;;;;;;;;18.50;14.25;;;;;4.02;66.77;100396.94;5053300;28;45483;-75
2023/01/19 06:19:49;;;;;;;;;18.25;13.25;;;;;4.09;66.89;100405.72;5048247;28;45345;-75
2023/01/19 06:22:14;;;;;;;;;10.50;9.75;;;;;4.14;66.67;100401.53;5045563;28;45431;-75
2023/01/19 06:24:40;;;;;;;;;13.25;12.25;;;;;4.10;66.54;100407.47;5063657;28;45580;-75
2023/01/19 06:27:05;;;;;;;;;12.50;12.50;;;;;4.10;66.58;100406.59;5059558;28;45572;-74
2023/01/19 06:29:32;;;;;;;;;14.75;13.75;;;;;4.17;66.77;100414.53;5068854;28;46378;-73
2023/01/19 06:31:57;;;;;;;;;16.50;12.75;;;;;4.05;67.03;100398.72;5059024;28;46350;-72
2023/01/19 06:34:27;;;;;;;;;20.00;12.50;;;;;4.08;66.09;100413.47;5048357;28;45395;-71
2023/01/19 06:36:55;;;;;;;;;13.50;9.50;;;;;4.16;66.84;100420.56;5054419;28;45443;-72
2023/01/19 06:39:21;;;;;;;;;14.50;11.50;;;;;4.14;66.73;100414.47;5051836;28;45545;-74
2023/01/19 06:41:46;;;;;;;;;15.00;13.75;;;;;4.15;66.63;100430.91;5051959;28;45650;-72
2023/01/19 06:44:12;;;;;;;;;13.00;11.50;;;;;4.07;66.73;100435.91;5055441;28;45341;-74
2023/01/19 06:46:38;;;;;;;;;11.75;10.25;;;;;4.04;66.52;100428.94;5056238;28;45403;-74
2023/01/19 06:49:04;;;;;;;;;11.75;10.50;;;;;4.00;66.36;100431.44;5074702;27;45554;-73
2023/01/19 06:51:29;;;;;;;;;11.25;10.00;;;;;4.02;66.23;100427.16;5074560;27;45499;-73
2023/01/19 06:53:55;;;;;;;;;14.00;10.75;;;;;4.07;66.36;100433.31;5053697;28;45399;-73
2023/01/19 06:56:20;;;;;;;;;11.75;11.00;;;;;4.06;66.20;100438.47;5093177;27;45475;-72
2023/01/19 06:58:47;;;;;;;;;12.00;11.00;;;;;4.08;66.38;100432.50;5075588;28;48032;-70
2023/01/19 07:01:12;;;;;;;;;17.25;11.25;;;;;4.03;66.24;100427.22;5057409;28;45452;-70
2023/01/19 07:03:38;;;;;;;;;12.75;10.75;;;;;4.04;66.13;100426.34;5050855;28;45443;-70
2023/01/19 07:06:07;;;;;;;;;10.00;9.00;;;;;4.07;66.44;100435.91;5057537;28;45398;-73
2023/01/19 07:08:34;;;;;;;;;10.00;9.00;;;;;3.95;66.38;100428.72;5058955;28;46578;-72
2023/01/19 07:13:24;;;;;;;;;11.00;7.75;;;;;4.06;66.87;100426.41;5028956;28;45467;-71
2023/01/19 07:15:50;;;;;;;;;13.25;10.50;;;;;3.98;66.46;100425.31;5042764;28;45552;-72
2023/01/19 07:18:15;;;;;;;;;14.00;11.75;;;;;3.88;66.98;100407.81;5026603;28;45508;-73
2023/01/19 07:20:43;;;;;;;;;14.25;11.25;;;;;3.95;67.62;100436.50;5032721;28;45450;-74
2023/01/19 07:23:12;;;;;;;;;11.75;10.50;;;;;3.76;67.48;100403.22;5026091;28;45621;-75
2023/01/19 07:25:38;;;;;;;;;13.50;10.00;;;;;3.93;67.24;100430.41;5024283;28;45514;-74
2023/01/19 07:28:03;;;;;;;;;11.00;10.50;;;;;3.80;67.95;100441.31;5023622;28;45427;-75
2023/01/19 07:30:29;;;;;;;;;12.75;12.00;;;;;3.75;67.52;100438.63;5024746;28;45587;-74
2023/01/19 07:32:56;;;;;;;;;17.50;11.25;;;;;3.72;67.95;100433.34;5026276;28;47357;-72
2023/01/19 07:35:23;;;;;;;;;15.25;14.25;;;;;3.66;68.42;100437.50;5009680;28;45711;-75
2023/01/19 07:37:49;;;;;;;;;15.75;13.50;;;;;3.50;68.70;100437.09;5041854;28;45644;-74
2023/01/19 07:40:15;;;;;;;;;16.25;13.25;;;;;3.44;68.68;100441.25;5027725;28;45344;-73
2023/01/19 07:42:49;;;;;;;;;15.75;12.50;;;;;3.35;68.63;100435.00;5027727;28;46029;-75
2023/01/19 07:45:15;;;;;;;;;10.25;9.50;;;;;3.31;69.30;100445.22;5044615;28;45354;-72
2023/01/19 07:47:44;;;;;;;;;12.75;12.00;;;;;3.33;69.22;100453.91;5028736;28;45693;-74
2023/01/19 07:50:12;;;;;;;;;16.00;13.75;;;;;3.27;69.56;100441.66;5028087;28;45429;-73
2023/01/19 07:52:38;;;;;;;;;17.50;13.00;;;;;3.19;69.00;100435.44;5029641;28;46158;-75
2023/01/19 07:55:04;;;;;;;;;23.50;17.25;;;;;3.26;70.16;100462.34;5032931;28;45564;-74
2023/01/19 07:57:30;;;;;;;;;24.00;18.00;;;;;3.18;70.17;100462.16;5030097;28;45434;-76
2023/01/19 07:59:55;;;;;;;;;24.50;23.25;;;;;3.10;70.48;100456.75;5034001;28;45699;-74
2023/01/19 08:02:21;;;;;;;;;20.50;16.00;;;;;3.07;70.60;100458.38;5028309;28;47618;-74
2023/01/19 08:04:47;;;;;;;;;20.00;16.25;;;;;3.08;70.76;100461.00;5029809;28;45761;-73
2023/01/19 08:07:13;;;;;;;;;14.00;12.00;;;;;3.15;70.69;100467.22;5028846;28;45507;-73
2023/01/19 08:09:39;;;;;;;;;16.00;15.75;;;;;3.18;70.59;100470.78;5030424;28;45470;-73
2023/01/19 08:12:05;;;;;;;;;15.75;14.25;;;;;3.25;70.13;100468.34;5047590;28;46767;-74
2023/01/19 08:14:31;;;;;;;;;18.00;15.75;;;;;3.25;69.94;100465.75;5034585;28;45375;-75
2023/01/19 08:17:01;;;;;;;;;21.25;18.75;;;;;3.28;69.97;100466.75;5029857;28;45536;-73
2023/01/19 08:19:27;;;;;;;;;20.50;17.00;;;;;3.31;70.11;100474.56;5030305;28;45422;-73
2023/01/19 08:21:53;;;;;;;;;20.25;18.25;;;;;3.08;70.25;100437.72;5033262;28;45516;-75
2023/01/19 08:24:21;;;;;;;;;26.00;20.75;;;;;3.19;70.01;100462.19;5022380;28;45566;-73
2023/01/19 08:26:48;;;;;;;;;20.00;17.75;;;;;3.38;70.10;100483.41;5020390;28;45525;-74
2023/01/19 08:29:14;;;;;;;;;23.25;17.50;;;;;3.32;69.66;100484.13;5021523;28;45241;-74
2023/01/19 08:31:42;;;;;;;;;19.00;14.00;;;;;3.26;69.51;100472.72;5019849;28;45435;-76
2023/01/19 08:34:11;;;;;;;;;23.25;17.25;;;;;3.35;69.91;100483.31;5020774;28;45461;-75
2023/01/19 08:36:45;;;;;;;;;20.00;17.75;;;;;3.36;69.63;100478.16;5015936;28;45479;-73
2023/01/19 08:39:13;;;;;;;;;21.75;18.75;;;;;3.29;70.63;100468.47;5016854;28;45616;-74
2023/01/19 08:41:42;;;;;;;;;26.25;20.50;;;;;3.10;70.84;100454.16;5015260;28;46797;-75
2023/01/19 08:44:07;;;;;;;;;23.50;20.25;;;;;3.23;70.77;100473.50;5019288;28;45616;-75
2023/01/19 08:46:33;;;;;;;;;26.50;19.50;;;;;3.17;70.81;100483.69;5014755;28;45514;-75
2023/01/19 08:48:59;;;;;;;;;24.50;22.25;;;;;3.10;70.23;100484.34;5017071;28;45471;-75
2023/01/19 08:51:24;;;;;;;;;27.75;22.00;;;;;2.93;71.48;100465.75;5018772;28;46128;-74
2023/01/19 08:53:50;;;;;;;;;21.50;17.50;;;;;2.88;72.11;100486.31;5015658;28;45585;-74
2023/01/19 08:56:16;;;;;;;;;18.25;16.50;;;;;2.87;71.37;100488.84;5016992;28;45690;-72
2023/01/19 08:58:43;;;;;;;;;22.75;16.50;;;;;2.90;71.58;100483.78;5014757;28;45661;-72
2023/01/19 09:01:13;;;;;;;;;25.50;20.25;;;;;2.81;71.38;100468.00;5015537;28;46098;-73
2023/01/19 09:03:39;;;;;;;;;19.00;18.00;;;;;2.87;72.21;100482.00;5016188;28;45854;-75
2023/01/19 09:06:06;;;;;;;;;21.00;19.00;;;;;3.08;71.49;100488.59;5014708;28;45551;-75
2023/01/19 09:08:32;;;;;;;;;24.75;19.50;;;;;3.05;71.40;100478.16;5015428;28;45722;-75
2023/01/19 09:10:58;;;;;;;;;26.50;20.00;;;;;3.10;71.91;100479.16;5015857;28;46313;-74
2023/01/19 09:13:24;;;;;;;;;25.75;18.50;;;;;3.09;70.83;100464.47;5017835;28;45515;-75
2023/01/19 09:15:50;;;;;;;;;23.50;21.50;;;;;3.24;70.75;100492.50;5034966;28;45388;-76
2023/01/19 09:18:20;;;;;;;;;23.75;22.00;;;;;3.17;70.94;100494.91;5029658;28;45441;-76
2023/01/19 09:20:48;;;;;;;;;25.00;19.25;;;;;3.05;70.56;100478.16;5005303;28;47602;-74
2023/01/19 09:23:16;;;;;;;;;32.00;24.50;;;;;3.13;70.53;100492.19;5018859;28;45524;-74
2023/01/19 09:25:45;;;;;;;;;28.75;21.50;;;;;3.16;70.63;100495.75;5003048;28;45986;-72
2023/01/19 09:28:13;;;;;;;;;31.50;22.50;;;;;3.10;70.88;100464.50;5004519;28;45546;-73
2023/01/19 09:30:40;;;;;;;;;26.50;22.50;;;;;3.35;70.38;100488.50;5002703;28;47713;-72
2023/01/19 09:33:11;;;;;;;;;28.00;18.50;;;;;3.46;70.51;100500.00;5004065;28;45700;-74
2023/01/19 09:35:38;;;;;;;;;30.25;25.00;;;;;3.51;70.46;100485.50;5036829;28;45452;-75
2023/01/19 09:38:06;;;;;;;;;30.50;22.00;;;;;3.55;69.99;100486.44;5021130;28;45287;-76
2023/01/19 09:40:32;;;;;;;;;37.75;27.50;;;;;3.53;69.60;100488.97;5037580;28;46251;-74
2023/01/19 09:43:18;;;;;;;;;35.75;25.00;;;;;3.48;70.14;100493.16;5034411;28;45541;-73
2023/01/19 09:45:52;;;;;;;;;39.00;30.75;;;;;3.52;70.15;100491.53;5019270;28;45604;-75
2023/01/19 09:49:05;;;;;;;;;31.50;22.00;;;;;3.49;69.06;100479.38;5039731;28;45414;-74
2023/01/19 09:51:36;;;;;;;;;34.00;28.25;;;;;3.69;69.30;100491.97;5004221;28;46778;-74
2023/01/19 09:54:14;;;;;;;;;30.00;26.00;;;;;3.80;69.39;100494.00;5035894;28;45527;-75
2023/01/19 09:56:48;;;;;;;;;39.50;28.50;;;;;3.53;68.95;100457.03;5012286;28;45485;-72
2023/01/19 09:59:26;;;;;;;;;27.75;24.50;;;;;3.79;69.09;100479.28;5030788;28;45963;-75
2023/01/19 10:02:05;;;;;;;;;29.25;26.75;;;;;4.07;69.51;100497.25;5006403;28;45484;-76
2023/01/19 10:04:37;;;;;;;;;34.25;30.25;;;;;4.01;68.89;100496.25;5030623;28;45509;-75
2023/01/19 10:07:08;;;;;;;;;38.50;30.25;;;;;3.83;69.24;100499.25;5029003;28;45459;-74
2023/01/19 10:09:57;;;;;;;;;37.25;31.25;;;;;3.65;69.27;100496.19;5027332;28;45598;-74
2023/01/19 10:12:49;;;;;;;;;35.75;29.75;;;;;3.67;70.05;100504.00;5030251;28;47627;-71
2023/01/19 10:15:40;;;;;;;;;29.00;23.25;;;;;3.67;70.65;100504.88;5003831;28;45535;-74
2023/01/19 10:18:15;;;;;;;;;42.00;33.25;;;;;3.63;70.28;100510.84;5028970;28;45870;-73
2023/01/19 10:20:46;;;;;;;;;41.50;33.50;;;;;3.49;70.78;100494.03;5027990;28;45401;-75
2023/01/19 10:23:40;;;;;;;;;37.50;31.00;;;;;3.47;70.73;100498.31;5030974;28;46886;-76
2023/01/19 10:26:32;;;;;;;;;36.50;31.75;;;;;3.56;71.06;100503.69;5030684;28;45837;-73
2023/01/19 10:29:14;;;;;;;;;40.25;30.25;;;;;3.54;71.33;100495.91;5018517;28;45559;-71
2023/01/19 10:31:42;;;;;;;;;35.50;28.75;;;;;3.61;70.42;100495.25;5014696;28;45495;-74
2023/01/19 10:34:17;;;;;;;;;32.25;26.50;;;;;3.68;70.42;100491.09;5029633;28;47806;-72
2023/01/19 10:36:45;;;;;;;;;35.75;29.25;;;;;3.72;70.33;100497.22;5033689;28;45444;-71
2023/01/19 10:39:15;;;;;;;;;29.75;24.50;;;;;3.74;70.84;100482.59;5013780;28;45795;-74
2023/01/19 10:41:52;;;;;;;;;35.75;31.50;;;;;3.90;70.75;100489.06;5029528;28;45735;-72
2023/01/19 10:44:26;;;;;;;;;28.50;25.00;;;;;3.86;70.14;100482.03;5033647;28;45756;-71
2023/01/19 10:46:54;;;;;;;;;33.25;25.00;;;;;3.88;70.60;100488.13;5017812;28;45289;-73
2023/01/19 10:49:28;;;;;;;;;29.25;28.00;;;;;3.88;70.10;100470.88;5030434;28;45505;-71
2023/01/19 10:51:56;;;;;;;;;30.50;28.25;;;;;3.72;70.26;100448.88;5034151;28;45455;-73
2023/01/19 10:54:22;;;;;;;;;33.00;29.25;;;;;3.76;70.53;100455.91;5034352;28;45473;-74
2023/01/19 10:56:54;;;;;;;;;38.25;28.75;;;;;3.76;70.57;100474.03;5015141;28;45675;-74
2023/01/19 10:59:34;;;;;;;;;26.50;24.50;;;;;3.60;70.68;100430.44;5032423;28;45624;-73
2023/01/19 11:02:27;;;;;;;;;37.75;31.00;;;;;3.87;70.49;100460.47;5037040;28;45562;-71
2023/01/19 11:04:54;;;;;;;;;34.25;29.00;;;;;3.89;70.97;100457.09;5014003;28;45995;-73
2023/01/19 11:07:26;;;;;;;;;42.25;33.50;;;;;3.88;70.28;100455.31;5014747;28;45552;-75
2023/01/19 11:10:12;;;;;;;;;38.00;29.75;;;;;3.97;70.78;100454.69;5034612;28;45445;-76
2023/01/19 11:12:43;;;;;;;;;34.00;29.50;;;;;3.94;70.49;100439.03;5031502;28;45836;-75
2023/01/19 11:15:20;;;;;;;;;32.00;27.75;;;;;3.99;70.74;100437.47;5002236;28;47000;-72
2023/01/19 11:17:50;;;;;;;;;31.25;29.50;;;;;4.11;70.07;100450.72;5012588;28;45550;-71
2023/01/19 11:20:30;;;;;;;;;39.50;31.25;;;;;4.12;70.14;100438.63;5019841;28;45594;-72
2023/01/19 11:23:25;;;;;;;;;31.00;27.25;;;;;4.20;69.26;100445.75;5026121;28;45325;-71
2023/01/19 11:25:53;;;;;;;;;33.50;29.50;;;;;4.26;69.53;100445.00;5014097;28;46181;-71
2023/01/19 11:28:30;;;;;;;;;30.00;27.75;;;;;4.37;69.25;100450.44;5015612;28;45484;-71
2023/01/19 11:30:57;;;;;;;;;37.00;31.25;;;;;4.23;69.78;100440.63;5043440;28;45578;-71
2023/01/19 11:33:34;;;;;;;;;36.25;31.00;;;;;4.25;69.35;100438.94;5017376;28;45754;-73
2023/01/19 11:36:13;;;;;;;;;35.75;29.00;;;;;4.32;69.96;100436.47;5033188;28;45494;-73
2023/01/19 11:38:42;;;;;;;;;40.25;32.00;;;;;4.28;69.71;100445.03;5018434;28;45580;-75